Time;durP1;ratioP1;P1;durP2;ratioP2;P2;SDS_P1;SDS_P2;PMS_P1;PMS_P2;Temp;Humidity;BMP_temperature;BMP_pressure;BME280_temperature;BME280_humidity;BME280_pressure;Samples;Min_cycle;Max_cycle;Signal;HPM_P1;HPM_P2
2023/04/07 00:00:02;;;;;;;4.13;3.80;;;;;;;-0.99;100.00;96318.13;5059225;28;20488;-73
2023/04/07 00:02:37;;;;;;;5.83;5.30;;;;;;;-1.24;100.00;96308.38;5094033;28;20465;-73
2023/04/07 00:05:04;;;;;;;7.30;6.33;;;;;;;-0.69;100.00;96345.22;5075972;28;20479;-73
2023/04/07 00:07:31;;;;;;;7.37;6.67;;;;;;;-0.45;100.00;96361.94;5093907;28;20944;-73
2023/04/07 00:10:03;;;;;;;10.50;7.30;;;;;;;-0.55;100.00;96358.53;5059838;28;20948;-73
2023/04/07 00:12:29;;;;;;;6.90;6.30;;;;;;;-0.69;100.00;96340.81;5075674;28;20469;-73
2023/04/07 00:14:56;;;;;;;8.00;7.20;;;;;;;-0.65;100.00;96349.69;5075574;28;20431;-73
2023/04/07 00:17:22;;;;;;;7.87;6.97;;;;;;;-1.13;100.00;96322.19;5093838;28;20424;-73
2023/04/07 00:19:49;;;;;;;7.40;6.47;;;;;;;-1.10;100.00;96331.28;5075749;28;20423;-73
2023/04/07 00:22:16;;;;;;;8.50;6.50;;;;;;;-0.86;100.00;96355.03;5093244;28;20512;-73
2023/04/07 00:24:43;;;;;;;5.47;5.00;;;;;;;-1.06;100.00;96296.81;5075630;28;20972;-73
2023/04/07 00:27:10;;;;;;;7.60;5.30;;;;;;;-0.74;100.00;96340.03;5058901;28;20438;-73
2023/04/07 00:29:37;;;;;;;8.67;6.07;;;;;;;-0.72;100.00;96349.13;5075274;28;20953;-73
2023/04/07 00:32:03;;;;;;;8.23;6.20;;;;;;;-0.95;100.00;96323.56;5075308;28;20542;-72
2023/04/07 00:34:30;;;;;;;6.10;5.60;;;;;;;-1.11;100.00;96316.75;5093386;28;21092;-73
2023/04/07 00:36:57;;;;;;;7.53;5.60;;;;;;;-1.07;100.00;96343.75;5075260;28;20467;-73
2023/04/07 00:39:26;;;;;;;8.30;5.60;;;;;;;-0.87;100.00;96333.47;5052902;28;20510;-73
2023/04/07 00:41:53;;;;;;;9.20;6.20;;;;;;;-0.93;100.00;96321.53;5052344;28;20452;-73
2023/04/07 00:44:20;;;;;;;10.93;6.53;;;;;;;-1.16;100.00;96338.28;5052024;28;20801;-73
2023/04/07 00:46:47;;;;;;;6.23;5.60;;;;;;;-1.34;100.00;96302.34;5047808;28;20989;-73
2023/04/07 00:49:16;;;;;;;7.00;6.10;;;;;;;-1.43;100.00;96330.59;5073006;28;20844;-73
2023/04/07 00:51:45;;;;;;;8.60;6.50;;;;;;;-1.54;100.00;96288.25;5050883;28;20490;-73
2023/04/07 00:54:12;;;;;;;12.47;8.70;;;;;;;-1.49;100.00;96296.06;5068798;28;20471;-73
2023/04/07 00:56:39;;;;;;;16.93;11.93;;;;;;;-1.17;100.00;96334.13;5038480;28;20482;-73
2023/04/07 00:59:09;;;;;;;13.10;9.00;;;;;;;-1.22;100.00;96316.69;5034941;28;20446;-73
2023/04/07 01:01:46;;;;;;;15.27;10.83;;;;;;;-1.25;100.00;96324.97;5065892;28;20952;-73
2023/04/07 01:04:27;;;;;;;12.40;8.53;;;;;;;-1.71;100.00;96292.03;5051788;28;20445;-73
2023/04/07 01:07:00;;;;;;;14.23;8.83;;;;;;;-1.96;100.00;96287.44;5064901;28;20479;-73
2023/04/07 01:09:56;;;;;;;10.07;7.03;;;;;;;-1.94;100.00;96311.28;5058290;28;20447;-73
2023/04/07 01:12:53;;;;;;;11.43;8.30;;;;;;;-1.55;100.00;96311.84;5074534;28;20470;-73
2023/04/07 01:15:26;;;;;;;8.37;7.03;;;;;;;-1.51;100.00;96286.97;5074785;28;20428;-73
2023/04/07 01:18:06;;;;;;;17.40;8.53;;;;;;;-1.32;100.00;96306.28;5061034;28;20470;-73
2023/04/07 01:20:35;;;;;;;12.90;7.20;;;;;;;-1.35;100.00;96314.53;5054535;28;20547;-73
2023/04/07 01:23:05;;;;;;;9.07;6.67;;;;;;;-1.46;100.00;96299.97;5072281;28;20914;-73
2023/04/07 01:26:03;;;;;;;10.30;7.83;;;;;;;-1.38;100.00;96309.09;5044378;28;20894;-73
2023/04/07 01:28:48;;;;;;;6.50;5.77;;;;;;;-1.40;100.00;96308.56;5051018;28;20476;-73
2023/04/07 01:31:16;;;;;;;6.77;6.03;;;;;;;-1.39;100.00;96307.53;5056114;28;20454;-73
2023/04/07 01:33:48;;;;;;;7.87;6.80;;;;;;;-1.40;100.00;96311.94;5053381;28;20453;-73
2023/04/07 01:36:16;;;;;;;7.13;6.00;;;;;;;-1.40;100.00;96309.34;5037602;28;20443;-73
2023/04/07 01:38:44;;;;;;;7.10;6.40;;;;;;;-1.42;100.00;96295.84;5050857;28;20425;-73
2023/04/07 01:41:14;;;;;;;6.77;6.10;;;;;;;-1.55;100.00;96291.09;5037097;28;20470;-73
2023/04/07 01:43:42;;;;;;;7.47;6.70;;;;;;;-1.40;100.00;96311.94;5053956;28;20491;-73
2023/04/07 01:46:10;;;;;;;6.80;6.10;;;;;;;-1.73;100.00;96268.97;5054351;28;20998;-73
2023/04/07 01:48:39;;;;;;;9.30;6.10;;;;;;;-1.56;100.00;96300.69;5061636;28;20491;-73
2023/04/07 01:51:06;;;;;;;6.60;6.00;;;;;;;-1.48;100.00;96307.19;5092162;28;20427;-73
2023/04/07 01:53:36;;;;;;;11.43;8.93;;;;;;;-1.43;100.00;96298.69;5057317;28;20483;-73
2023/04/07 01:56:04;;;;;;;16.20;8.60;;;;;;;-1.55;100.00;96284.09;5074197;28;20419;-73
2023/04/07 01:58:33;;;;;;;7.93;7.13;;;;;;;-1.72;100.00;96270.53;5057537;28;20439;-73
2023/04/07 02:01:01;;;;;;;10.57;8.87;;;;;;;-1.68;100.00;96275.97;5073979;28;20887;-73
2023/04/07 02:03:36;;;;;;;9.43;7.00;;;;;;;-1.65;100.00;96278.06;5074159;28;20475;-73
2023/04/07 02:06:09;;;;;;;9.80;7.27;;;;;;;-1.49;100.00;96287.50;5057740;28;20459;-73
2023/04/07 02:08:45;;;;;;;8.57;5.87;;;;;;;-1.71;100.00;96271.31;5073988;28;20427;-73
2023/04/07 02:11:13;;;;;;;7.90;5.93;;;;;;;-1.62;100.00;96290.53;5073973;28;20435;-73
2023/04/07 02:13:42;;;;;;;6.37;5.27;;;;;;;-2.05;100.00;96273.38;5073932;28;21034;-73
2023/04/07 02:16:11;;;;;;;5.70;5.10;;;;;;;-2.10;100.00;96256.78;5073818;28;21021;-73
2023/04/07 02:18:39;;;;;;;5.30;4.80;;;;;;;-1.93;100.00;96284.34;5073625;28;20435;-73
2023/04/07 02:21:07;;;;;;;5.80;5.20;;;;;;;-1.71;100.00;96284.25;5083422;28;20454;-73
2023/04/07 02:23:35;;;;;;;7.63;4.53;;;;;;;-1.75;100.00;96280.59;5073560;28;20984;-73
2023/04/07 02:26:01;;;;;;;4.87;4.47;;;;;;;-1.86;100.00;96264.97;5055757;28;20459;-73
2023/04/07 02:28:28;;;;;;;5.87;5.47;;;;;;;-2.39;100.00;96214.06;5037022;28;20497;-73
2023/04/07 02:30:55;;;;;;;5.47;4.93;;;;;;;-2.00;100.00;96268.22;5051742;28;20789;-73
2023/04/07 02:33:21;;;;;;;5.10;4.70;;;;;;;-2.35;100.00;96266.13;5073493;28;20448;-73
2023/04/07 02:35:49;;;;;;;5.10;4.70;;;;;;;-2.18;100.00;96284.91;5073503;28;20929;-73
2023/04/07 02:38:16;;;;;;;7.03;4.87;;;;;;;-2.45;100.00;96253.88;5073217;28;20466;-73
2023/04/07 02:40:42;;;;;;;5.63;4.83;;;;;;;-2.27;100.00;96263.88;5074670;28;20925;-73
2023/04/07 02:43:09;;;;;;;5.30;4.77;;;;;;;-2.13;100.00;96259.09;5049790;28;20526;-73
2023/04/07 02:45:36;;;;;;;4.80;4.40;;;;;;;-2.30;100.00;96242.88;5033735;28;20468;-73
2023/04/07 02:48:02;;;;;;;6.03;4.87;;;;;;;-2.32;100.00;96216.44;5075070;28;20427;-73
2023/04/07 02:50:29;;;;;;;7.60;5.43;;;;;;;-2.03;100.00;96246.19;5071816;28;20819;-73
2023/04/07 02:52:56;;;;;;;6.30;5.63;;;;;;;-2.22;100.00;96232.06;5095090;28;20497;-73
2023/04/07 02:55:22;;;;;;;5.43;4.77;;;;;;;-1.89;100.00;96267.28;5076833;28;20431;-73
2023/04/07 02:57:49;;;;;;;5.57;5.13;;;;;;;-1.90;100.00;96276.06;5077155;28;20444;-73
2023/04/07 03:00:34;;;;;;;7.00;5.27;;;;;;;-2.08;100.00;96252.13;5063000;28;20813;-73
2023/04/07 03:03:09;;;;;;;7.90;6.20;;;;;;;-2.13;100.00;96264.25;5076676;28;20555;-73
2023/04/07 03:05:39;;;;;;;7.07;6.23;;;;;;;-2.29;100.00;96252.97;5076418;28;20823;-73
2023/04/07 03:08:07;;;;;;;5.17;4.67;;;;;;;-2.24;100.00;96265.97;5076387;28;20533;-73
2023/04/07 03:10:35;;;;;;;6.27;5.67;;;;;;;-2.45;100.00;96265.00;5076460;28;20467;-73
2023/04/07 03:13:02;;;;;;;5.90;5.10;;;;;;;-3.02;100.00;96179.34;5076240;28;20483;-73
2023/04/07 03:15:30;;;;;;;7.13;4.90;;;;;;;-2.41;100.00;96255.72;5068293;28;20471;-73
2023/04/07 03:17:56;;;;;;;5.90;5.37;;;;;;;-2.75;100.00;96225.91;5037959;28;20474;-73
2023/04/07 03:20:23;;;;;;;5.33;4.93;;;;;;;-2.61;100.00;96241.81;5061216;28;20424;-73
2023/04/07 03:22:50;;;;;;;8.10;6.37;;;;;;;-2.69;100.00;96243.03;5037653;28;20548;-73
2023/04/07 03:25:25;;;;;;;6.93;5.07;;;;;;;-2.48;100.00;96264.72;5056105;28;20493;-73
2023/04/07 03:27:52;;;;;;;5.83;5.27;;;;;;;-2.61;100.00;96257.34;5039562;28;20439;-73
2023/04/07 03:30:20;;;;;;;8.23;7.10;;;;;;;-2.56;100.00;96252.22;5055966;28;20502;-73
2023/04/07 03:32:47;;;;;;;7.10;6.30;;;;;;;-2.72;100.00;96244.28;5055761;28;20456;-73
2023/04/07 03:35:14;;;;;;;7.40;6.70;;;;;;;-2.93;100.00;96229.59;5055852;28;20440;-73
2023/04/07 03:37:42;;;;;;;8.03;5.80;;;;;;;-3.06;100.00;96184.22;5036392;28;20972;-73
2023/04/07 03:40:14;;;;;;;8.60;6.40;;;;;;;-2.78;100.00;96226.41;5044986;28;20437;-73
2023/04/07 03:42:40;;;;;;;7.83;6.50;;;;;;;-2.71;100.00;96242.50;5053963;28;20452;-73
2023/04/07 03:45:10;;;;;;;10.50;6.70;;;;;;;-2.51;100.00;96221.22;5051511;28;20450;-73
2023/04/07 03:47:41;;;;;;;10.47;6.67;;;;;;;-2.51;100.00;96250.47;5052776;28;20898;-73
2023/04/07 03:50:09;;;;;;;8.47;7.00;;;;;;;-2.70;100.00;96221.53;5045425;28;20544;-73
2023/04/07 03:52:46;;;;;;;7.87;7.13;;;;;;;-3.09;100.00;96210.53;5040296;28;20488;-73
2023/04/07 03:55:21;;;;;;;5.73;5.23;;;;;;;-3.04;100.00;96220.97;5051994;28;20440;-74
2023/04/07 03:57:52;;;;;;;6.47;5.40;;;;;;;-2.84;100.00;96246.25;5053352;28;20848;-73
2023/04/07 04:00:19;;;;;;;5.83;5.10;;;;;;;-2.99;100.00;96209.88;5049690;28;20441;-74
2023/04/07 04:03:01;;;;;;;6.70;5.57;;;;;;;-2.57;100.00;96246.25;5059978;28;20895;-73
2023/04/07 04:05:28;;;;;;;5.40;4.80;;;;;;;-2.88;100.00;96208.19;5056318;28;20956;-73
2023/04/07 04:07:55;;;;;;;5.70;5.20;;;;;;;-2.78;100.00;96216.06;5035287;28;20457;-73
2023/04/07 04:10:22;;;;;;;13.17;6.00;;;;;;;-2.76;100.00;96230.28;5052059;28;20475;-73
2023/04/07 04:12:51;;;;;;;6.40;5.70;;;;;;;-2.86;100.00;96212.09;5028892;28;20492;-73
2023/04/07 04:15:18;;;;;;;5.77;5.27;;;;;;;-2.82;100.00;96248.59;5055088;28;20447;-73
2023/04/07 04:17:45;;;;;;;5.20;4.77;;;;;;;-2.83;100.00;96252.19;5052917;28;20427;-73
2023/04/07 04:20:13;;;;;;;5.93;5.37;;;;;;;-3.01;100.00;96214.50;5075188;28;20454;-73
2023/04/07 04:22:42;;;;;;;8.73;6.00;;;;;;;-2.96;100.00;96255.94;5058719;28;20483;-73
2023/04/07 04:25:10;;;;;;;10.23;5.90;;;;;;;-2.88;100.00;96247.75;5074987;28;20444;-73
2023/04/07 04:27:38;;;;;;;5.00;4.60;;;;;;;-3.07;100.00;96205.13;5074853;28;20827;-73
2023/04/07 04:30:13;;;;;;;6.43;5.30;;;;;;;-3.18;100.00;96206.84;5074952;28;20435;-73
2023/04/07 04:32:50;;;;;;;6.03;5.53;;;;;;;-3.94;100.00;96113.72;5074896;28;20459;-73
2023/04/07 04:35:21;;;;;;;6.07;5.50;;;;;;;-3.38;100.00;96201.44;5074973;28;20440;-73
2023/04/07 04:38:01;;;;;;;5.97;5.37;;;;;;;-3.31;100.00;96222.72;5038752;28;20463;-73
2023/04/07 04:40:29;;;;;;;6.03;5.50;;;;;;;-3.42;100.00;96210.69;5049412;28;20490;-73
2023/04/07 04:42:55;;;;;;;10.43;5.90;;;;;;;-3.40;100.00;96217.16;5054587;28;20460;-73
2023/04/07 04:45:23;;;;;;;5.80;5.30;;;;;;;-3.26;100.00;96246.03;5046605;28;20438;-73
2023/04/07 04:47:50;;;;;;;6.10;5.50;;;;;;;-3.51;100.00;96219.88;5054570;28;21039;-74
2023/04/07 04:50:17;;;;;;;6.47;5.80;;;;;;;-3.97;100.00;96167.63;5048778;28;20436;-73
2023/04/07 04:52:45;;;;;;;6.10;5.53;;;;;;;-3.64;100.00;96198.53;5042350;28;20467;-73
2023/04/07 04:55:18;;;;;;;6.33;5.73;;;;;;;-3.64;100.00;96216.59;5049954;28;20428;-73
2023/04/07 04:57:45;;;;;;;8.33;7.50;;;;;;;-3.60;100.00;96207.38;5051092;28;20517;-73
2023/04/07 05:00:18;;;;;;;7.80;7.00;;;;;;;-3.62;100.00;96214.56;5051134;28;20973;-73
2023/04/07 05:02:47;;;;;;;7.90;7.20;;;;;;;-3.38;100.00;96237.59;5038214;28;21076;-73
2023/04/07 05:05:14;;;;;;;8.57;7.60;;;;;;;-3.65;100.00;96203.94;5034457;28;20448;-73
2023/04/07 05:07:42;;;;;;;10.20;8.57;;;;;;;-3.77;100.00;96198.88;5025147;28;20481;-73
2023/04/07 05:10:11;;;;;;;7.43;6.73;;;;;;;-3.91;100.00;96193.25;5036144;28;20455;-73
2023/04/07 05:12:45;;;;;;;8.07;7.20;;;;;;;-3.86;100.00;96241.63;5054180;28;20479;-74
2023/04/07 05:15:11;;;;;;;10.10;8.07;;;;;;;-4.05;100.00;96204.16;5054113;28;20458;-74
2023/04/07 05:17:38;;;;;;;10.17;8.63;;;;;;;-4.12;100.00;96201.75;5037594;28;20817;-73
2023/04/07 05:20:09;;;;;;;8.97;8.07;;;;;;;-3.66;100.00;96231.56;5040545;28;20489;-73
2023/04/07 05:22:40;;;;;;;9.57;8.60;;;;;;;-3.65;100.00;96201.34;5034606;28;20551;-73
2023/04/07 05:25:10;;;;;;;9.33;7.83;;;;;;;-3.33;100.00;96225.53;5046220;28;20440;-74
2023/04/07 05:27:39;;;;;;;8.90;8.00;;;;;;;-3.27;100.00;96210.88;5058926;28;20517;-74
2023/04/07 05:30:11;;;;;;;9.83;8.93;;;;;;;-3.08;100.00;96219.84;5054873;28;20795;-73
2023/04/07 05:32:38;;;;;;;8.27;6.83;;;;;;;-2.95;100.00;96212.75;5053803;28;20552;-74
2023/04/07 05:35:14;;;;;;;7.40;6.67;;;;;;;-2.85;100.00;96200.72;5060718;28;20497;-73
2023/04/07 05:37:48;;;;;;;8.53;7.50;;;;;;;-2.82;100.00;96209.78;5034665;28;20448;-73
2023/04/07 05:40:15;;;;;;;9.63;8.20;;;;;;;-2.57;100.00;96201.47;5046534;28;20922;-73
2023/04/07 05:42:43;;;;;;;8.30;7.50;;;;;;;-2.15;100.00;96233.41;5061674;28;20461;-73
2023/04/07 05:45:10;;;;;;;9.17;8.30;;;;;;;-2.34;100.00;96231.44;5046129;28;20486;-73
2023/04/07 05:47:40;;;;;;;10.77;9.77;;;;;;;-1.82;100.00;96249.72;5050460;28;20464;-72
2023/04/07 05:50:11;;;;;;;12.23;9.53;;;;;;;-2.01;100.00;96200.09;5043866;28;20963;-73
2023/04/07 05:52:40;;;;;;;10.00;8.00;;;;;;;-1.70;100.00;96211.44;5025110;28;20953;-73
2023/04/07 05:55:17;;;;;;;10.13;8.50;;;;;;;-1.66;100.00;96220.28;5066290;28;20434;-73
2023/04/07 05:57:44;;;;;;;12.73;9.30;;;;;;;-1.56;100.00;96209.19;5037193;28;20438;-73
2023/04/07 06:00:13;;;;;;;11.00;8.47;;;;;;;-1.46;100.00;96224.03;5051517;28;20448;-73
2023/04/07 06:02:39;;;;;;;13.53;10.17;;;;;;;-1.49;100.00;96212.31;5092351;28;20458;-73
2023/04/07 06:05:12;;;;;;;11.90;9.30;;;;;;;-1.27;100.00;96207.75;5073986;28;20439;-73
2023/04/07 06:07:39;;;;;;;9.57;8.67;;;;;;;-1.27;100.00;96225.13;5057064;28;20475;-73
2023/04/07 06:10:07;;;;;;;10.63;9.60;;;;;;;-1.37;100.00;96204.34;5073609;28;20439;-73
2023/04/07 06:12:34;;;;;;;9.73;8.73;;;;;;;-1.02;100.00;96214.84;5073753;28;20505;-73
2023/04/07 06:15:01;;;;;;;10.60;8.60;;;;;;;-0.70;100.00;96232.06;5073945;28;20439;-73
2023/04/07 06:17:27;;;;;;;10.63;9.53;;;;;;;-0.96;100.00;96213.03;5092041;28;20848;-73
2023/04/07 06:19:54;;;;;;;11.17;9.97;;;;;;;-0.69;100.00;96231.78;5093950;28;20490;-73
2023/04/07 06:22:21;;;;;;;9.57;8.20;;;;;;;-0.53;100.00;96250.81;5081445;28;20443;-73
2023/04/07 06:24:47;;;;;;;9.83;8.77;;;;;;;-0.56;100.00;96217.53;5081709;28;20562;-73
2023/04/07 06:27:15;;;;;;;9.53;8.40;;;;;;;-0.73;100.00;96220.38;5065111;28;20463;-73
2023/04/07 06:29:41;;;;;;;11.10;8.83;;;;;;;-0.76;100.00;96202.72;5064351;28;20501;-73
2023/04/07 06:32:08;;;;;;;12.60;11.50;;;;;;;-0.46;100.00;96209.00;5064170;28;21078;-72
2023/04/07 06:34:35;;;;;;;10.70;9.33;;;;;;;-0.05;100.00;96238.34;5080407;28;20435;-72
2023/04/07 06:37:02;;;;;;;12.17;10.87;;;;;;;0.45;100.00;96258.34;5080489;28;20435;-72
2023/04/07 06:39:29;;;;;;;10.67;9.70;;;;;;;0.76;100.00;96234.84;5054141;28;20931;-72
2023/04/07 06:41:56;;;;;;;12.00;10.07;;;;;;;1.10;100.00;96264.38;5049650;28;20850;-72
2023/04/07 06:44:23;;;;;;;9.40;8.50;;;;;;;0.97;100.00;96222.53;5060500;28;20817;-72
2023/04/07 06:46:52;;;;;;;10.27;9.13;;;;;;;1.40;100.00;96240.00;5079714;28;20460;-73
2023/04/07 06:49:18;;;;;;;12.37;9.67;;;;;;;1.94;100.00;96257.38;5054713;28;20443;-73
2023/04/07 06:51:45;;;;;;;11.33;10.23;;;;;;;1.90;100.00;96253.75;5064613;28;20480;-73
2023/04/07 06:54:13;;;;;;;71.17;43.40;;;;;;;1.67;100.00;96217.97;5093072;28;20535;-73
2023/04/07 06:56:41;;;;;;;13.30;9.90;;;;;;;1.88;100.00;96247.28;5057733;28;20927;-73
2023/04/07 06:59:08;;;;;;;10.43;9.20;;;;;;;2.07;100.00;96240.34;5058123;28;20429;-73
2023/04/07 07:01:36;;;;;;;8.80;8.00;;;;;;;1.68;100.00;96211.69;5073024;28;20481;-73
2023/04/07 07:04:05;;;;;;;10.77;8.07;;;;;;;1.94;100.00;96230.53;5079475;28;20521;-73
2023/04/07 07:06:32;;;;;;;10.97;9.60;;;;;;;2.16;100.00;96259.56;5061334;28;20498;-73
2023/04/07 07:09:01;;;;;;;14.53;9.50;;;;;;;2.22;100.00;96229.75;5053271;28;20439;-73
2023/04/07 07:11:28;;;;;;;10.90;9.50;;;;;;;2.74;100.00;96235.25;5081149;28;20435;-73
2023/04/07 07:13:54;;;;;;;10.23;9.30;;;;;;;3.04;100.00;96236.75;5060329;28;20555;-73
2023/04/07 07:16:22;;;;;;;10.13;9.10;;;;;;;3.41;100.00;96262.91;5060480;28;20481;-73
2023/04/07 07:18:50;;;;;;;11.47;9.60;;;;;;;3.71;100.00;96266.16;5048539;28;20474;-73
2023/04/07 07:21:18;;;;;;;9.73;8.73;;;;;;;4.01;100.00;96265.75;5055469;28;20439;-73
2023/04/07 07:23:44;;;;;;;11.97;9.40;;;;;;;3.80;100.00;96241.72;5065423;28;20847;-73
2023/04/07 07:26:11;;;;;;;13.53;9.93;;;;;;;4.26;100.00;96255.91;5053709;28;20440;-73
2023/04/07 07:28:38;;;;;;;10.60;9.40;;;;;;;3.75;100.00;96222.72;5063233;28;20473;-73
2023/04/07 07:31:12;;;;;;;10.20;9.20;;;;;;;4.33;100.00;96254.50;5046350;28;20534;-73
2023/04/07 07:33:40;;;;;;;11.70;9.40;;;;;;;4.53;100.00;96274.28;5074178;28;20509;-73
2023/04/07 07:36:07;;;;;;;10.13;9.13;;;;;;;4.48;100.00;96210.78;5057452;28;20455;-73
2023/04/07 07:38:34;;;;;;;10.23;9.33;;;;;;;5.04;100.00;96266.28;5056668;28;20426;-73
2023/04/07 07:41:03;;;;;;;11.10;8.87;;;;;;;5.13;100.00;96273.47;5041354;28;20428;-74
2023/04/07 07:43:30;;;;;;;13.50;9.33;;;;;;;5.40;100.00;96262.97;5040064;28;20456;-74
2023/04/07 07:45:56;;;;;;;9.83;8.70;;;;;;;5.42;100.00;96249.56;5056599;28;20456;-73
2023/04/07 07:48:23;;;;;;;12.17;8.67;;;;;;;5.29;100.00;96270.25;5052860;28;20849;-73
2023/04/07 07:50:51;;;;;;;10.33;8.67;;;;;;;5.40;100.00;96264.81;5065144;28;20444;-74
2023/04/07 07:53:17;;;;;;;10.13;9.07;;;;;;;5.31;100.00;96233.25;5066301;28;20456;-74
2023/04/07 07:55:46;;;;;;;8.73;7.80;;;;;;;5.22;100.00;96266.50;5036177;28;20472;-74
2023/04/07 07:58:12;;;;;;;9.93;8.97;;;;;;;5.05;100.00;96201.56;5045159;28;20864;-74
2023/04/07 08:00:39;;;;;;;11.70;8.20;;;;;;;5.45;100.00;96244.50;5074315;28;20427;-74
2023/04/07 08:03:06;;;;;;;9.03;8.23;;;;;;;5.50;97.43;96243.63;5075919;28;20504;-74
2023/04/07 08:05:33;;;;;;;10.27;8.63;;;;;;;5.68;100.00;96271.53;5076024;28;20439;-74
2023/04/07 08:08:00;;;;;;;11.40;9.73;;;;;;;5.79;98.97;96256.38;5075890;28;20474;-74
2023/04/07 08:10:27;;;;;;;9.80;8.37;;;;;;;5.59;96.31;96229.50;5074683;28;20549;-74
2023/04/07 08:12:53;;;;;;;11.97;9.80;;;;;;;5.94;97.16;96256.03;5037870;28;20467;-74
2023/04/07 08:15:20;;;;;;;11.53;9.37;;;;;;;6.43;96.76;96238.59;5058364;28;20440;-74
2023/04/07 08:17:47;;;;;;;10.33;9.27;;;;;;;6.64;96.03;96251.97;5086672;28;20415;-74
2023/04/07 08:20:15;;;;;;;10.80;8.90;;;;;;;6.47;92.08;96263.94;5075746;28;20440;-74
2023/04/07 08:22:41;;;;;;;10.87;9.07;;;;;;;6.43;90.60;96281.41;5093817;28;20451;-74
2023/04/07 08:25:09;;;;;;;12.00;7.80;;;;;;;6.15;89.30;96256.34;5052542;28;20473;-74
2023/04/07 08:27:36;;;;;;;11.13;9.57;;;;;;;6.38;89.42;96252.63;5045831;28;20465;-74
2023/04/07 08:30:07;;;;;;;9.50;8.60;;;;;;;6.28;87.79;96259.97;5073560;28;20894;-73
2023/04/07 08:32:35;;;;;;;10.70;9.67;;;;;;;6.06;89.63;96258.91;5055573;28;20444;-72
2023/04/07 08:35:02;;;;;;;11.83;8.60;;;;;;;6.85;91.47;96284.53;5060494;28;20851;-72
2023/04/07 08:37:30;;;;;;;11.27;9.97;;;;;;;6.58;86.56;96261.06;5031989;28;20438;-74
2023/04/07 08:39:56;;;;;;;11.03;9.43;;;;;;;6.38;91.01;96233.47;5061906;28;20437;-73
2023/04/07 08:42:29;;;;;;;10.97;8.40;;;;;;;6.55;90.91;96266.94;5051102;28;20452;-74
2023/04/07 08:45:00;;;;;;;10.40;8.33;;;;;;;6.36;88.22;96259.25;5045036;28;20464;-74
2023/04/07 08:47:29;;;;;;;11.53;8.23;;;;;;;6.38;87.14;96250.00;5055169;28;20555;-74
2023/04/07 08:50:00;;;;;;;10.30;9.20;;;;;;;6.58;88.30;96267.09;5051089;28;20459;-75
2023/04/07 08:52:53;;;;;;;10.73;9.63;;;;;;;7.03;87.16;96270.38;5056579;28;20552;-74
2023/04/07 08:55:20;;;;;;;12.33;9.70;;;;;;;7.79;89.01;96274.56;5038791;28;20444;-74
2023/04/07 08:57:47;;;;;;;15.83;10.07;;;;;;;7.34;82.45;96254.53;5055103;28;20428;-74
2023/04/07 09:00:14;;;;;;;12.47;11.13;;;;;;;7.61;80.78;96277.19;5054847;28;20436;-76
2023/04/07 09:02:47;;;;;;;14.37;11.63;;;;;;;8.12;81.15;96282.75;5051582;28;20468;-73
2023/04/07 09:05:14;;;;;;;14.33;11.17;;;;;;;7.89;79.30;96253.22;5035622;28;20440;-73
2023/04/07 09:07:44;;;;;;;16.00;11.77;;;;;;;8.02;78.78;96283.09;5054547;28;20559;-74
2023/04/07 09:10:11;;;;;;;12.23;10.13;;;;;;;7.54;79.79;96247.13;5054565;28;20439;-74
2023/04/07 09:12:37;;;;;;;12.20;10.30;;;;;;;7.23;81.00;96257.78;5054553;28;20514;-74
2023/04/07 09:15:06;;;;;;;11.47;10.03;;;;;;;7.57;82.33;96278.84;5072617;28;20424;-73
2023/04/07 09:17:33;;;;;;;12.20;10.60;;;;;;;7.55;80.60;96275.00;5051812;28;20486;-73
2023/04/07 09:20:00;;;;;;;12.87;9.80;;;;;;;7.45;80.55;96246.34;5089197;28;20982;-73
2023/04/07 09:22:38;;;;;;;13.67;10.87;;;;;;;8.15;83.20;96267.13;5074475;28;20494;-73
2023/04/07 09:25:12;;;;;;;13.40;10.47;;;;;;;8.34;81.21;96276.53;5047805;28;20462;-74
2023/04/07 09:27:38;;;;;;;13.90;10.47;;;;;;;8.23;79.20;96234.72;5049056;28;20881;-74
2023/04/07 09:30:14;;;;;;;11.17;9.40;;;;;;;8.52;78.86;96270.94;5051537;28;20444;-74
2023/04/07 09:32:41;;;;;;;13.97;10.07;;;;;;;8.30;78.34;96239.53;5051744;28;20452;-74
2023/04/07 09:35:08;;;;;;;13.57;10.37;;;;;;;8.16;78.98;96241.56;5072810;28;20420;-74
2023/04/07 09:37:36;;;;;;;13.23;10.17;;;;;;;8.23;77.70;96247.88;5067084;28;20428;-74
2023/04/07 09:40:03;;;;;;;13.10;10.50;;;;;;;8.24;77.56;96261.84;5039115;28;21059;-74
2023/04/07 09:42:34;;;;;;;13.83;10.33;;;;;;;8.50;77.04;96265.22;5054626;28;20448;-74
2023/04/07 09:45:01;;;;;;;14.20;10.67;;;;;;;8.50;78.07;96253.91;5046781;28;20437;-74
2023/04/07 09:47:30;;;;;;;11.60;10.03;;;;;;;8.15;77.23;96240.03;5050517;28;20486;-74
2023/04/07 09:49:58;;;;;;;13.33;10.53;;;;;;;8.29;76.73;96259.81;5042671;28;20574;-73
2023/04/07 09:52:48;;;;;;;12.37;11.03;;;;;;;8.38;77.16;96265.09;5032737;28;20465;-73
2023/04/07 09:55:16;;;;;;;13.43;10.40;;;;;;;8.59;75.64;96259.94;5066650;28;20851;-73
2023/04/07 09:57:44;;;;;;;12.00;10.27;;;;;;;8.20;75.50;96243.25;5050628;28;20433;-74
2023/04/07 10:00:11;;;;;;;13.60;9.90;;;;;;;8.67;75.65;96239.91;5067550;28;20432;-74
2023/04/07 10:02:42;;;;;;;11.03;9.83;;;;;;;8.74;74.47;96251.50;5059852;28;20484;-74
2023/04/07 10:05:09;;;;;;;11.83;10.27;;;;;;;8.67;73.89;96232.00;5040361;28;20429;-74
2023/04/07 10:07:36;;;;;;;14.43;9.90;;;;;;;8.81;73.85;96251.81;5071802;28;20463;-74
2023/04/07 10:10:03;;;;;;;12.40;10.40;;;;;;;8.86;75.13;96232.41;5053762;28;20460;-74
2023/04/07 10:12:33;;;;;;;12.33;9.43;;;;;;;8.72;72.61;96264.25;5053420;28;21049;-74
2023/04/07 10:15:01;;;;;;;12.90;9.40;;;;;;;8.65;73.37;96231.53;5052069;28;20437;-75
2023/04/07 10:17:28;;;;;;;14.97;10.10;;;;;;;8.94;72.26;96254.53;5082997;28;20423;-74
2023/04/07 10:19:57;;;;;;;12.30;10.90;;;;;;;8.93;71.62;96259.03;5091919;28;20427;-74
2023/04/07 10:22:26;;;;;;;12.53;10.73;;;;;;;8.96;72.61;96231.28;5073697;28;20459;-74
2023/04/07 10:24:59;;;;;;;11.10;9.90;;;;;;;9.42;71.08;96259.41;5048525;28;20524;-74
2023/04/07 10:27:35;;;;;;;13.40;9.87;;;;;;;9.43;70.60;96237.22;5053472;28;20535;-74
2023/04/07 10:30:10;;;;;;;16.80;11.43;;;;;;;9.46;70.64;96213.59;5060579;28;20436;-74
2023/04/07 10:32:48;;;;;;;13.67;12.07;;;;;;;9.84;70.01;96249.66;5069604;28;21042;-74
2023/04/07 10:35:16;;;;;;;13.23;11.80;;;;;;;9.69;68.03;96247.59;5063695;28;20455;-75
2023/04/07 10:38:05;;;;;;;12.70;9.77;;;;;;;10.19;70.72;96241.44;5053718;28;20464;-75
2023/04/07 10:40:34;;;;;;;13.60;10.80;;;;;;;10.02;64.95;96215.97;5047313;28;20428;-74
2023/04/07 10:43:01;;;;;;;14.60;9.87;;;;;;;9.94;64.88;96246.63;5049439;28;20867;-74
2023/04/07 10:45:47;;;;;;;14.10;11.13;;;;;;;9.60;59.98;96245.00;5053492;28;20929;-74
2023/04/07 10:48:16;;;;;;;14.83;11.20;;;;;;;9.47;61.50;96219.63;5037093;28;20500;-74
2023/04/07 10:51:06;;;;;;;13.70;10.70;;;;;;;9.69;61.46;96237.03;5053441;28;20443;-74
2023/04/07 10:53:33;;;;;;;13.13;11.03;;;;;;;9.54;60.07;96206.72;5071434;28;20453;-73
2023/04/07 10:56:00;;;;;;;13.20;11.30;;;;;;;9.69;59.14;96215.91;5057964;28;20497;-74
2023/04/07 10:58:29;;;;;;;12.80;10.70;;;;;;;9.64;60.42;96219.53;5047504;28;20803;-76
2023/04/07 11:00:56;;;;;;;12.80;10.77;;;;;;;9.94;61.28;96222.09;5045400;28;20439;-74
2023/04/07 11:03:24;;;;;;;11.60;9.60;;;;;;;9.85;59.38;96210.81;5036836;28;20498;-75
2023/04/07 11:05:51;;;;;;;10.30;9.23;;;;;;;10.30;59.30;96216.97;5092030;28;20434;-75
2023/04/07 11:08:37;;;;;;;13.93;10.70;;;;;;;10.52;59.72;96231.63;5061839;28;20503;-76
2023/04/07 11:11:07;;;;;;;14.60;11.50;;;;;;;10.98;58.93;96232.38;5075024;28;20804;-74
2023/04/07 11:13:45;;;;;;;11.47;9.60;;;;;;;10.62;57.59;96233.09;5070386;28;20448;-74
2023/04/07 11:16:13;;;;;;;13.40;10.67;;;;;;;10.95;57.75;96220.56;5067135;28;20442;-74
2023/04/07 11:18:40;;;;;;;12.73;11.47;;;;;;;11.45;58.36;96210.69;5060955;28;20836;-74
2023/04/07 11:21:08;;;;;;;13.30;11.20;;;;;;;11.03;56.57;96196.97;5049696;28;20433;-74
2023/04/07 11:23:42;;;;;;;15.77;10.60;;;;;;;11.04;55.73;96230.25;5074839;28;20499;-74
2023/04/07 11:26:11;;;;;;;12.90;11.60;;;;;;;10.59;56.14;96191.47;5061675;28;20435;-73
2023/04/07 11:28:50;;;;;;;12.57;11.10;;;;;;;10.82;56.39;96220.91;5074627;28;20543;-75
2023/04/07 11:31:25;;;;;;;12.77;11.00;;;;;;;11.28;55.42;96184.50;5074594;28;20478;-74
2023/04/07 11:33:57;;;;;;;12.50;11.00;;;;;;;11.34;54.51;96191.09;5052661;28;20460;-73